Orbital elements of INTERCOSMOS 24
| Launched | 27 September 1989 |
| Flight ended | – |
| Launch site | Plesetsk Missile and Space Complex, Russia |
| Owner | Commonwealth of Independent States (former USSR) |
| NORAD ID | 20261 |
| Date fetched |
Epoch osculation |
Inc. [°] |
Ecc. | RA asc node [hr] |
Arg Peri. [°] |
Mean anom [°] |
Mean motion [rev/day] |
Abs. mag |
| Date fetched |
Epoch osculation |
Inc. [°] |
Ecc. | RA asc node [hr] |
Arg Peri. [°] |
Mean anom [°] |
Mean motion [rev/day] |
Abs. mag |
| 2026 May 04 17:57 | 2026 May 04 05:59:13 | 82.6057 | 0.11877 | 4.5483 | 163.8125 | 200.4637 | 12.59608 | 5.743 |
| 2026 May 03 17:57 | 2026 May 03 07:06:29 | 82.6055 | 0.11877 | 4.5896 | 166.0243 | 200.4637 | 12.59608 | 5.743 |
| 2026 May 02 17:57 | 2026 May 02 08:13:44 | 82.6053 | 0.11876 | 4.6310 | 168.2371 | 200.4637 | 12.59608 | 5.743 |
| 2026 May 01 17:56 | 2026 May 01 07:26:36 | 82.6052 | 0.11876 | 4.6758 | 170.6332 | 200.4637 | 12.59608 | 5.743 |
| 2026 Apr 30 17:56 | 2026 Apr 30 08:33:52 | 82.6049 | 0.11876 | 4.7171 | 172.8455 | 200.4637 | 12.59608 | 5.743 |
| 2026 Apr 29 17:57 | 2026 Apr 29 09:41:07 | 82.6047 | 0.11876 | 4.7585 | 175.0566 | 200.4637 | 12.59608 | 5.743 |
| 2026 Apr 28 17:56 | 2026 Apr 28 08:53:59 | 82.6045 | 0.11876 | 4.8033 | 177.4533 | 200.4637 | 12.59608 | 5.743 |
| 2026 Apr 27 17:58 | 2026 Apr 27 08:06:50 | 82.6043 | 0.11875 | 4.8481 | 179.8496 | 200.4637 | 12.59608 | 5.743 |
| 2026 Apr 26 17:58 | 2026 Apr 26 09:14:06 | 82.6040 | 0.11875 | 4.8895 | 182.0615 | 200.4637 | 12.59608 | 5.743 |
| 2026 Apr 25 17:58 | 2026 Apr 25 08:26:57 | 82.6039 | 0.11875 | 4.9343 | 184.4580 | 200.4637 | 12.59608 | 5.743 |
| 2026 Apr 24 17:59 | 2026 Apr 23 22:07:50 | 82.6035 | 0.11875 | 4.9963 | 187.7760 | 200.4637 | 12.59608 | 5.743 |
| 2026 Apr 23 17:57 | 2026 Apr 23 06:52:40 | 82.6035 | 0.11875 | 5.0239 | 189.2507 | 200.4637 | 12.59608 | 5.743 |
| 2026 Apr 22 17:57 | 2026 Apr 22 06:05:31 | 82.6033 | 0.11874 | 5.0687 | 191.6473 | 200.4637 | 12.59608 | 5.743 |
| 2026 Apr 21 17:57 | 2026 Apr 21 09:07:10 | 82.6033 | 0.11874 | 5.1066 | 193.6759 | 200.4637 | 12.59608 | 5.743 |
| 2026 Apr 20 17:57 | 2026 Apr 20 08:20:02 | 82.6032 | 0.11874 | 5.1515 | 196.0727 | 200.4637 | 12.59608 | 5.743 |
| 2026 Apr 19 17:58 | 2026 Apr 19 07:32:54 | 82.6031 | 0.11874 | 5.1963 | 198.4699 | 200.4637 | 12.59608 | 5.743 |
| 2026 Apr 18 17:56 | 2026 Apr 17 21:13:48 | 82.6029 | 0.11873 | 5.2583 | 201.7891 | 200.4637 | 12.59608 | 5.743 |
| 2026 Apr 16 17:57 | 2026 Apr 15 21:33:56 | 82.6026 | 0.11873 | 5.3445 | 206.3982 | 200.4637 | 12.59608 | 5.743 |
| 2026 Apr 14 17:57 | 2026 Apr 14 09:20:27 | 82.6023 | 0.11873 | 5.4101 | 209.9014 | 200.4637 | 12.59608 | 5.743 |
| 2026 Apr 13 17:57 | 2026 Apr 13 04:44:33 | 82.6021 | 0.11872 | 5.4618 | 212.6676 | 200.4637 | 12.59608 | 5.743 |
| 2026 Apr 12 17:57 | 2026 Apr 12 07:46:14 | 82.6020 | 0.11872 | 5.4997 | 214.6964 | 200.4637 | 12.59608 | 5.743 |
| 2026 Apr 11 17:57 | 2026 Apr 11 08:53:31 | 82.6018 | 0.11872 | 5.5411 | 216.9098 | 200.4637 | 12.59608 | 5.743 |
| 2026 Apr 10 17:58 | 2026 Apr 10 06:12:02 | 82.6016 | 0.11871 | 5.5894 | 219.4921 | 200.4637 | 12.59608 | 5.743 |
| 2026 Apr 09 18:01 | 2026 Apr 08 23:41:46 | 82.6016 | 0.11871 | 5.6446 | 222.4432 | 200.4637 | 12.59608 | 5.743 |
| 2026 Apr 08 17:57 | 2026 Apr 08 04:37:51 | 82.6016 | 0.11871 | 5.6791 | 224.2877 | 200.4637 | 12.59608 | 5.743 |
| 2026 Apr 07 17:57 | 2026 Apr 07 05:45:09 | 82.6016 | 0.11871 | 5.7205 | 226.5008 | 200.4637 | 12.59608 | 5.743 |